sensor_id;sensor_type;location;lat;lon;timestamp;P1;durP1;ratioP1;P2;durP2;ratioP2
75496;SDS011;64074;47.540;19.072;2024-02-21T00:00:12;7.07;;;4.75;;
75496;SDS011;64074;47.540;19.072;2024-02-21T00:03:34;7.40;;;3.92;;
75496;SDS011;64074;47.540;19.072;2024-02-21T00:06:50;5.23;;;3.50;;
75496;SDS011;64074;47.540;19.072;2024-02-21T00:09:57;7.07;;;3.30;;
75496;SDS011;64074;47.540;19.072;2024-02-21T00:13:00;5.40;;;3.42;;
75496;SDS011;64074;47.540;19.072;2024-02-21T00:16:12;6.03;;;3.20;;
75496;SDS011;64074;47.540;19.072;2024-02-21T00:19:35;4.68;;;3.10;;
75496;SDS011;64074;47.540;19.072;2024-02-21T00:22:51;5.77;;;3.13;;
75496;SDS011;64074;47.540;19.072;2024-02-21T00:26:18;4.82;;;3.40;;
75496;SDS011;64074;47.540;19.072;2024-02-21T00:29:38;6.57;;;3.33;;
75496;SDS011;64074;47.540;19.072;2024-02-21T00:32:57;4.65;;;2.85;;
75496;SDS011;64074;47.540;19.072;2024-02-21T00:36:06;6.03;;;3.53;;
75496;SDS011;64074;47.540;19.072;2024-02-21T00:39:27;4.83;;;2.90;;
75496;SDS011;64074;47.540;19.072;2024-02-21T00:42:34;6.05;;;3.00;;
75496;SDS011;64074;47.540;19.072;2024-02-21T00:45:46;5.45;;;3.00;;
75496;SDS011;64074;47.540;19.072;2024-02-21T00:49:02;5.85;;;2.90;;
75496;SDS011;64074;47.540;19.072;2024-02-21T00:52:15;4.68;;;2.42;;
75496;SDS011;64074;47.540;19.072;2024-02-21T00:55:35;4.00;;;2.00;;
75496;SDS011;64074;47.540;19.072;2024-02-21T00:58:44;3.70;;;2.30;;
75496;SDS011;64074;47.540;19.072;2024-02-21T01:01:49;2.83;;;1.70;;
75496;SDS011;64074;47.540;19.072;2024-02-21T01:04:58;4.35;;;2.00;;
75496;SDS011;64074;47.540;19.072;2024-02-21T01:08:20;4.35;;;1.75;;
75496;SDS011;64074;47.540;19.072;2024-02-21T01:11:41;3.13;;;1.60;;
75496;SDS011;64074;47.540;19.072;2024-02-21T01:15:11;2.30;;;1.38;;
75496;SDS011;64074;47.540;19.072;2024-02-21T01:18:33;2.92;;;1.80;;
75496;SDS011;64074;47.540;19.072;2024-02-21T01:21:48;3.33;;;1.33;;
75496;SDS011;64074;47.540;19.072;2024-02-21T01:24:58;3.35;;;1.60;;
75496;SDS011;64074;47.540;19.072;2024-02-21T01:28:15;5.00;;;1.53;;
75496;SDS011;64074;47.540;19.072;2024-02-21T01:31:24;3.53;;;1.55;;
75496;SDS011;64074;47.540;19.072;2024-02-21T01:34:31;4.82;;;1.90;;
75496;SDS011;64074;47.540;19.072;2024-02-21T01:37:38;3.60;;;1.40;;
75496;SDS011;64074;47.540;19.072;2024-02-21T01:40:42;2.22;;;1.30;;
75496;SDS011;64074;47.540;19.072;2024-02-21T01:43:55;4.07;;;1.50;;
75496;SDS011;64074;47.540;19.072;2024-02-21T01:47:10;3.83;;;1.60;;
75496;SDS011;64074;47.540;19.072;2024-02-21T01:50:31;2.88;;;1.60;;
75496;SDS011;64074;47.540;19.072;2024-02-21T01:53:52;3.75;;;1.40;;
75496;SDS011;64074;47.540;19.072;2024-02-21T01:57:15;4.55;;;1.67;;
75496;SDS011;64074;47.540;19.072;2024-02-21T02:00:31;4.97;;;1.70;;
75496;SDS011;64074;47.540;19.072;2024-02-21T02:03:37;4.80;;;1.70;;
75496;SDS011;64074;47.540;19.072;2024-02-21T02:06:48;3.90;;;1.90;;
75496;SDS011;64074;47.540;19.072;2024-02-21T02:10:26;6.15;;;2.00;;
75496;SDS011;64074;47.540;19.072;2024-02-21T02:13:57;3.88;;;2.20;;
75496;SDS011;64074;47.540;19.072;2024-02-21T02:17:22;4.87;;;1.80;;
75496;SDS011;64074;47.540;19.072;2024-02-21T02:20:44;4.47;;;1.85;;
75496;SDS011;64074;47.540;19.072;2024-02-21T02:24:06;4.35;;;1.80;;
75496;SDS011;64074;47.540;19.072;2024-02-21T02:27:22;4.38;;;2.15;;
75496;SDS011;64074;47.540;19.072;2024-02-21T02:30:32;3.42;;;1.90;;
75496;SDS011;64074;47.540;19.072;2024-02-21T02:33:44;5.23;;;2.10;;
75496;SDS011;64074;47.540;19.072;2024-02-21T02:36:54;4.18;;;2.00;;
75496;SDS011;64074;47.540;19.072;2024-02-21T02:40:15;3.25;;;1.88;;
75496;SDS011;64074;47.540;19.072;2024-02-21T02:43:23;4.15;;;2.22;;
75496;SDS011;64074;47.540;19.072;2024-02-21T02:46:27;3.65;;;2.40;;
75496;SDS011;64074;47.540;19.072;2024-02-21T02:49:34;6.17;;;2.47;;
75496;SDS011;64074;47.540;19.072;2024-02-21T02:52:45;5.82;;;2.50;;
75496;SDS011;64074;47.540;19.072;2024-02-21T02:55:59;5.93;;;2.58;;
75496;SDS011;64074;47.540;19.072;2024-02-21T02:59:03;7.72;;;2.70;;
75496;SDS011;64074;47.540;19.072;2024-02-21T03:02:12;4.05;;;2.38;;
75496;SDS011;64074;47.540;19.072;2024-02-21T03:05:27;6.00;;;2.53;;
75496;SDS011;64074;47.540;19.072;2024-02-21T03:08:51;6.60;;;2.80;;
75496;SDS011;64074;47.540;19.072;2024-02-21T03:12:13;5.57;;;3.10;;
75496;SDS011;64074;47.540;19.072;2024-02-21T03:15:41;6.10;;;2.50;;
75496;SDS011;64074;47.540;19.072;2024-02-21T03:18:55;7.13;;;2.78;;
75496;SDS011;64074;47.540;19.072;2024-02-21T03:22:13;7.97;;;3.10;;
75496;SDS011;64074;47.540;19.072;2024-02-21T03:25:23;7.93;;;2.50;;
75496;SDS011;64074;47.540;19.072;2024-02-21T03:28:57;5.90;;;3.15;;
75496;SDS011;64074;47.540;19.072;2024-02-21T03:32:02;5.05;;;2.63;;
75496;SDS011;64074;47.540;19.072;2024-02-21T03:35:06;7.40;;;2.88;;
75496;SDS011;64074;47.540;19.072;2024-02-21T03:38:13;5.00;;;2.80;;
75496;SDS011;64074;47.540;19.072;2024-02-21T03:41:21;4.30;;;2.30;;
75496;SDS011;64074;47.540;19.072;2024-02-21T03:44:31;7.28;;;2.60;;
75496;SDS011;64074;47.540;19.072;2024-02-21T03:47:34;4.57;;;2.63;;
75496;SDS011;64074;47.540;19.072;2024-02-21T03:50:39;5.70;;;3.10;;
75496;SDS011;64074;47.540;19.072;2024-02-21T03:53:51;4.37;;;2.53;;
75496;SDS011;64074;47.540;19.072;2024-02-21T03:57:01;5.57;;;3.00;;
75496;SDS011;64074;47.540;19.072;2024-02-21T04:00:10;7.18;;;3.33;;
75496;SDS011;64074;47.540;19.072;2024-02-21T04:03:17;7.65;;;3.53;;
75496;SDS011;64074;47.540;19.072;2024-02-21T04:06:24;5.38;;;3.42;;
75496;SDS011;64074;47.540;19.072;2024-02-21T04:09:40;4.77;;;3.07;;
75496;SDS011;64074;47.540;19.072;2024-02-21T04:12:58;7.63;;;3.40;;
75496;SDS011;64074;47.540;19.072;2024-02-21T04:16:15;6.38;;;3.10;;
75496;SDS011;64074;47.540;19.072;2024-02-21T04:19:36;7.47;;;3.80;;
75496;SDS011;64074;47.540;19.072;2024-02-21T04:22:57;9.68;;;4.10;;
75496;SDS011;64074;47.540;19.072;2024-02-21T04:26:24;8.03;;;4.10;;
75496;SDS011;64074;47.540;19.072;2024-02-21T04:29:39;9.52;;;3.78;;
75496;SDS011;64074;47.540;19.072;2024-02-21T04:32:55;7.60;;;4.00;;
75496;SDS011;64074;47.540;19.072;2024-02-21T04:36:24;6.20;;;3.85;;
75496;SDS011;64074;47.540;19.072;2024-02-21T04:39:49;12.55;;;4.03;;
75496;SDS011;64074;47.540;19.072;2024-02-21T04:43:11;6.53;;;3.53;;
75496;SDS011;64074;47.540;19.072;2024-02-21T04:46:33;8.50;;;4.40;;
75496;SDS011;64074;47.540;19.072;2024-02-21T04:49:53;7.82;;;4.22;;
75496;SDS011;64074;47.540;19.072;2024-02-21T04:53:13;6.85;;;3.92;;
75496;SDS011;64074;47.540;19.072;2024-02-21T04:56:40;7.68;;;3.90;;
75496;SDS011;64074;47.540;19.072;2024-02-21T05:00:02;9.20;;;4.60;;
75496;SDS011;64074;47.540;19.072;2024-02-21T05:03:16;8.75;;;4.40;;
75496;SDS011;64074;47.540;19.072;2024-02-21T05:06:20;10.15;;;4.85;;
75496;SDS011;64074;47.540;19.072;2024-02-21T05:09:30;8.77;;;4.70;;
75496;SDS011;64074;47.540;19.072;2024-02-21T05:12:41;7.43;;;4.15;;
75496;SDS011;64074;47.540;19.072;2024-02-21T05:16:05;9.00;;;4.73;;
75496;SDS011;64074;47.540;19.072;2024-02-21T05:19:25;11.52;;;4.15;;
75496;SDS011;64074;47.540;19.072;2024-02-21T05:22:47;10.23;;;5.20;;
75496;SDS011;64074;47.540;19.072;2024-02-21T05:26:08;8.93;;;5.00;;
75496;SDS011;64074;47.540;19.072;2024-02-21T05:29:13;9.45;;;4.93;;
75496;SDS011;64074;47.540;19.072;2024-02-21T05:32:17;9.40;;;4.60;;
75496;SDS011;64074;47.540;19.072;2024-02-21T05:35:27;9.88;;;4.93;;
75496;SDS011;64074;47.540;19.072;2024-02-21T05:38:39;10.15;;;4.28;;
75496;SDS011;64074;47.540;19.072;2024-02-21T05:41:46;8.50;;;4.28;;
75496;SDS011;64074;47.540;19.072;2024-02-21T05:44:56;8.73;;;3.90;;
75496;SDS011;64074;47.540;19.072;2024-02-21T05:48:05;9.97;;;4.10;;
75496;SDS011;64074;47.540;19.072;2024-02-21T05:51:26;6.43;;;3.60;;
75496;SDS011;64074;47.540;19.072;2024-02-21T05:54:53;11.57;;;4.13;;
75496;SDS011;64074;47.540;19.072;2024-02-21T05:58:15;7.28;;;4.03;;
75496;SDS011;64074;47.540;19.072;2024-02-21T06:01:35;8.85;;;3.70;;
75496;SDS011;64074;47.540;19.072;2024-02-21T06:04:56;8.17;;;3.40;;
75496;SDS011;64074;47.540;19.072;2024-02-21T06:08:17;6.50;;;3.58;;
75496;SDS011;64074;47.540;19.072;2024-02-21T06:11:41;7.38;;;3.33;;
75496;SDS011;64074;47.540;19.072;2024-02-21T06:14:55;10.02;;;3.88;;
75496;SDS011;64074;47.540;19.072;2024-02-21T06:18:22;9.30;;;3.50;;
75496;SDS011;64074;47.540;19.072;2024-02-21T06:21:33;7.47;;;3.47;;
75496;SDS011;64074;47.540;19.072;2024-02-21T06:25:01;6.53;;;3.35;;
75496;SDS011;64074;47.540;19.072;2024-02-21T06:28:30;8.82;;;3.58;;
75496;SDS011;64074;47.540;19.072;2024-02-21T06:31:52;7.97;;;4.03;;
75496;SDS011;64074;47.540;19.072;2024-02-21T06:35:15;7.68;;;3.90;;
75496;SDS011;64074;47.540;19.072;2024-02-21T06:38:37;6.80;;;2.80;;
75496;SDS011;64074;47.540;19.072;2024-02-21T06:42:04;6.03;;;3.15;;
75496;SDS011;64074;47.540;19.072;2024-02-21T06:45:15;5.57;;;3.10;;
75496;SDS011;64074;47.540;19.072;2024-02-21T06:48:28;9.40;;;3.67;;
75496;SDS011;64074;47.540;19.072;2024-02-21T06:52:06;8.70;;;3.60;;
75496;SDS011;64074;47.540;19.072;2024-02-21T06:55:57;7.10;;;3.50;;
75496;SDS011;64074;47.540;19.072;2024-02-21T06:59:15;6.22;;;3.30;;
75496;SDS011;64074;47.540;19.072;2024-02-21T07:02:43;6.65;;;3.63;;
75496;SDS011;64074;47.540;19.072;2024-02-21T07:05:53;7.50;;;3.80;;
75496;SDS011;64074;47.540;19.072;2024-02-21T07:09:14;6.82;;;3.80;;
75496;SDS011;64074;47.540;19.072;2024-02-21T07:12:18;8.33;;;3.87;;
75496;SDS011;64074;47.540;19.072;2024-02-21T07:15:22;8.20;;;3.70;;
75496;SDS011;64074;47.540;19.072;2024-02-21T07:18:35;7.28;;;3.22;;
75496;SDS011;64074;47.540;19.072;2024-02-21T07:21:51;10.13;;;3.22;;
75496;SDS011;64074;47.540;19.072;2024-02-21T07:25:03;16.63;;;3.75;;
75496;SDS011;64074;47.540;19.072;2024-02-21T07:28:12;7.83;;;3.60;;
75496;SDS011;64074;47.540;19.072;2024-02-21T07:31:30;6.35;;;3.60;;
75496;SDS011;64074;47.540;19.072;2024-02-21T07:34:41;9.52;;;3.28;;
75496;SDS011;64074;47.540;19.072;2024-02-21T07:37:53;8.98;;;3.28;;
75496;SDS011;64074;47.540;19.072;2024-02-21T07:41:07;6.88;;;3.42;;
75496;SDS011;64074;47.540;19.072;2024-02-21T07:44:11;8.83;;;3.00;;
75496;SDS011;64074;47.540;19.072;2024-02-21T07:47:28;5.40;;;2.72;;
75496;SDS011;64074;47.540;19.072;2024-02-21T07:51:08;7.32;;;3.22;;
75496;SDS011;64074;47.540;19.072;2024-02-21T07:54:12;6.20;;;3.10;;
75496;SDS011;64074;47.540;19.072;2024-02-21T07:57:19;8.40;;;3.60;;
75496;SDS011;64074;47.540;19.072;2024-02-21T08:00:26;6.20;;;2.87;;
75496;SDS011;64074;47.540;19.072;2024-02-21T08:03:30;6.47;;;2.88;;
75496;SDS011;64074;47.540;19.072;2024-02-21T08:06:38;7.55;;;3.28;;
75496;SDS011;64074;47.540;19.072;2024-02-21T08:09:43;7.20;;;2.85;;
75496;SDS011;64074;47.540;19.072;2024-02-21T08:12:55;6.53;;;2.97;;
75496;SDS011;64074;47.540;19.072;2024-02-21T08:16:14;6.37;;;2.87;;
75496;SDS011;64074;47.540;19.072;2024-02-21T08:19:36;8.40;;;2.75;;
75496;SDS011;64074;47.540;19.072;2024-02-21T08:22:51;8.05;;;2.72;;
75496;SDS011;64074;47.540;19.072;2024-02-21T08:26:02;9.13;;;2.40;;
75496;SDS011;64074;47.540;19.072;2024-02-21T08:29:35;9.13;;;2.92;;
75496;SDS011;64074;47.540;19.072;2024-02-21T08:33:05;9.53;;;2.60;;
75496;SDS011;64074;47.540;19.072;2024-02-21T08:36:19;5.43;;;2.88;;
75496;SDS011;64074;47.540;19.072;2024-02-21T08:39:49;6.22;;;2.63;;
75496;SDS011;64074;47.540;19.072;2024-02-21T08:43:17;9.80;;;3.08;;
75496;SDS011;64074;47.540;19.072;2024-02-21T08:46:34;7.82;;;2.97;;
75496;SDS011;64074;47.540;19.072;2024-02-21T08:50:02;10.63;;;2.90;;
75496;SDS011;64074;47.540;19.072;2024-02-21T08:53:27;7.13;;;2.50;;
75496;SDS011;64074;47.540;19.072;2024-02-21T08:56:41;7.68;;;2.65;;
75496;SDS011;64074;47.540;19.072;2024-02-21T08:59:46;7.75;;;2.67;;
75496;SDS011;64074;47.540;19.072;2024-02-21T09:02:51;8.25;;;2.67;;
75496;SDS011;64074;47.540;19.072;2024-02-21T09:05:54;8.33;;;2.40;;
75496;SDS011;64074;47.540;19.072;2024-02-21T09:09:01;6.35;;;2.30;;
75496;SDS011;64074;47.540;19.072;2024-02-21T09:12:09;5.85;;;2.25;;
75496;SDS011;64074;47.540;19.072;2024-02-21T09:15:19;7.20;;;2.65;;
75496;SDS011;64074;47.540;19.072;2024-02-21T09:18:33;7.97;;;3.00;;
75496;SDS011;64074;47.540;19.072;2024-02-21T09:21:47;5.87;;;2.27;;
75496;SDS011;64074;47.540;19.072;2024-02-21T09:25:05;6.85;;;2.40;;
75496;SDS011;64074;47.540;19.072;2024-02-21T09:28:32;7.65;;;2.58;;
75496;SDS011;64074;47.540;19.072;2024-02-21T09:31:44;10.68;;;3.10;;
75496;SDS011;64074;47.540;19.072;2024-02-21T09:34:57;8.35;;;2.60;;
75496;SDS011;64074;47.540;19.072;2024-02-21T09:38:18;10.80;;;2.60;;
75496;SDS011;64074;47.540;19.072;2024-02-21T09:41:38;7.18;;;3.97;;
75496;SDS011;64074;47.540;19.072;2024-02-21T09:45:08;27.50;;;10.07;;
75496;SDS011;64074;47.540;19.072;2024-02-21T09:48:45;6.20;;;2.05;;
75496;SDS011;64074;47.540;19.072;2024-02-21T09:52:06;8.73;;;2.38;;
75496;SDS011;64074;47.540;19.072;2024-02-21T09:55:13;6.73;;;2.23;;
75496;SDS011;64074;47.540;19.072;2024-02-21T09:58:25;8.73;;;2.30;;
75496;SDS011;64074;47.540;19.072;2024-02-21T10:01:42;6.95;;;2.13;;
75496;SDS011;64074;47.540;19.072;2024-02-21T10:04:57;6.47;;;2.08;;
75496;SDS011;64074;47.540;19.072;2024-02-21T10:08:19;8.82;;;2.30;;
75496;SDS011;64074;47.540;19.072;2024-02-21T10:11:41;8.43;;;2.80;;
75496;SDS011;64074;47.540;19.072;2024-02-21T10:15:01;8.13;;;2.65;;
75496;SDS011;64074;47.540;19.072;2024-02-21T10:18:06;6.80;;;2.25;;
75496;SDS011;64074;47.540;19.072;2024-02-21T10:21:09;5.63;;;2.50;;
75496;SDS011;64074;47.540;19.072;2024-02-21T10:24:25;8.63;;;2.60;;
75496;SDS011;64074;47.540;19.072;2024-02-21T10:27:53;7.27;;;2.60;;
75496;SDS011;64074;47.540;19.072;2024-02-21T10:31:22;11.27;;;3.40;;
75496;SDS011;64074;47.540;19.072;2024-02-21T10:34:34;7.57;;;2.40;;
75496;SDS011;64074;47.540;19.072;2024-02-21T10:37:59;8.75;;;3.83;;
75496;SDS011;64074;47.540;19.072;2024-02-21T10:41:14;8.27;;;2.95;;
75496;SDS011;64074;47.540;19.072;2024-02-21T10:44:41;8.20;;;3.17;;
75496;SDS011;64074;47.540;19.072;2024-02-21T10:47:52;8.75;;;3.15;;
75496;SDS011;64074;47.540;19.072;2024-02-21T10:51:18;8.45;;;3.53;;
75496;SDS011;64074;47.540;19.072;2024-02-21T10:58:01;9.65;;;3.00;;
75496;SDS011;64074;47.540;19.072;2024-02-21T11:01:19;6.47;;;2.97;;
75496;SDS011;64074;47.540;19.072;2024-02-21T11:04:47;8.75;;;3.75;;
75496;SDS011;64074;47.540;19.072;2024-02-21T11:08:05;8.20;;;3.25;;
75496;SDS011;64074;47.540;19.072;2024-02-21T11:11:23;5.53;;;2.38;;
75496;SDS011;64074;47.540;19.072;2024-02-21T11:14:52;6.68;;;2.50;;
75496;SDS011;64074;47.540;19.072;2024-02-21T11:18:24;6.57;;;2.37;;
75496;SDS011;64074;47.540;19.072;2024-02-21T11:21:36;7.43;;;2.30;;
75496;SDS011;64074;47.540;19.072;2024-02-21T11:25:06;7.72;;;2.97;;
75496;SDS011;64074;47.540;19.072;2024-02-21T11:28:25;8.65;;;2.58;;
75496;SDS011;64074;47.540;19.072;2024-02-21T11:31:38;10.52;;;2.80;;
75496;SDS011;64074;47.540;19.072;2024-02-21T11:35:00;6.93;;;2.33;;
75496;SDS011;64074;47.540;19.072;2024-02-21T11:38:19;6.65;;;2.83;;
75496;SDS011;64074;47.540;19.072;2024-02-21T11:41:40;9.10;;;2.60;;
75496;SDS011;64074;47.540;19.072;2024-02-21T11:45:00;9.02;;;3.53;;
75496;SDS011;64074;47.540;19.072;2024-02-21T11:48:26;10.73;;;3.42;;
75496;SDS011;64074;47.540;19.072;2024-02-21T11:52:00;5.87;;;2.70;;
75496;SDS011;64074;47.540;19.072;2024-02-21T11:55:16;9.52;;;3.00;;
75496;SDS011;64074;47.540;19.072;2024-02-21T11:58:22;8.32;;;3.00;;
75496;SDS011;64074;47.540;19.072;2024-02-21T12:01:30;7.22;;;2.75;;
75496;SDS011;64074;47.540;19.072;2024-02-21T12:04:35;9.45;;;3.28;;
75496;SDS011;64074;47.540;19.072;2024-02-21T12:07:45;6.97;;;2.80;;
75496;SDS011;64074;47.540;19.072;2024-02-21T12:11:01;8.75;;;2.95;;
75496;SDS011;64074;47.540;19.072;2024-02-21T12:14:10;8.55;;;3.35;;
75496;SDS011;64074;47.540;19.072;2024-02-21T12:17:29;10.60;;;2.80;;
75496;SDS011;64074;47.540;19.072;2024-02-21T12:20:47;7.60;;;2.58;;
75496;SDS011;64074;47.540;19.072;2024-02-21T12:24:17;8.27;;;2.30;;
75496;SDS011;64074;47.540;19.072;2024-02-21T12:27:41;8.88;;;2.00;;
75496;SDS011;64074;47.540;19.072;2024-02-21T12:30:45;8.93;;;3.97;;
75496;SDS011;64074;47.540;19.072;2024-02-21T12:33:49;9.32;;;2.83;;
75496;SDS011;64074;47.540;19.072;2024-02-21T12:36:58;6.57;;;2.88;;
75496;SDS011;64074;47.540;19.072;2024-02-21T12:40:14;10.53;;;3.83;;
75496;SDS011;64074;47.540;19.072;2024-02-21T12:43:21;8.27;;;2.13;;
75496;SDS011;64074;47.540;19.072;2024-02-21T12:46:26;8.40;;;2.90;;
75496;SDS011;64074;47.540;19.072;2024-02-21T12:49:35;9.55;;;3.10;;
75496;SDS011;64074;47.540;19.072;2024-02-21T12:52:46;7.80;;;2.70;;
75496;SDS011;64074;47.540;19.072;2024-02-21T12:56:07;7.30;;;2.30;;
75496;SDS011;64074;47.540;19.072;2024-02-21T12:59:15;7.47;;;2.28;;
75496;SDS011;64074;47.540;19.072;2024-02-21T13:02:25;6.82;;;2.75;;
75496;SDS011;64074;47.540;19.072;2024-02-21T13:05:48;8.10;;;2.20;;
75496;SDS011;64074;47.540;19.072;2024-02-21T13:09:17;7.78;;;2.30;;
75496;SDS011;64074;47.540;19.072;2024-02-21T13:12:43;6.37;;;1.93;;
75496;SDS011;64074;47.540;19.072;2024-02-21T13:16:06;7.75;;;2.40;;
75496;SDS011;64074;47.540;19.072;2024-02-21T13:19:23;6.15;;;2.22;;
75496;SDS011;64074;47.540;19.072;2024-02-21T13:22:44;5.72;;;1.95;;
75496;SDS011;64074;47.540;19.072;2024-02-21T13:26:05;6.43;;;2.60;;
75496;SDS011;64074;47.540;19.072;2024-02-21T13:29:33;8.63;;;2.60;;
75496;SDS011;64074;47.540;19.072;2024-02-21T13:32:54;6.85;;;2.22;;
75496;SDS011;64074;47.540;19.072;2024-02-21T13:36:02;8.18;;;2.65;;
75496;SDS011;64074;47.540;19.072;2024-02-21T13:39:13;7.65;;;2.60;;
75496;SDS011;64074;47.540;19.072;2024-02-21T13:42:44;11.13;;;3.45;;
75496;SDS011;64074;47.540;19.072;2024-02-21T13:46:12;7.17;;;2.00;;
75496;SDS011;64074;47.540;19.072;2024-02-21T13:49:35;4.82;;;1.88;;
75496;SDS011;64074;47.540;19.072;2024-02-21T13:52:58;5.25;;;2.10;;
75496;SDS011;64074;47.540;19.072;2024-02-21T13:56:20;6.50;;;1.80;;
75496;SDS011;64074;47.540;19.072;2024-02-21T13:59:43;8.35;;;1.80;;
75496;SDS011;64074;47.540;19.072;2024-02-21T14:03:09;7.10;;;2.10;;
75496;SDS011;64074;47.540;19.072;2024-02-21T14:06:29;5.38;;;1.83;;
75496;SDS011;64074;47.540;19.072;2024-02-21T14:09:35;6.65;;;2.10;;
75496;SDS011;64074;47.540;19.072;2024-02-21T14:12:51;8.27;;;2.00;;
75496;SDS011;64074;47.540;19.072;2024-02-21T14:16:45;5.90;;;1.85;;
75496;SDS011;64074;47.540;19.072;2024-02-21T14:19:56;3.30;;;1.33;;
75496;SDS011;64074;47.540;19.072;2024-02-21T14:23:19;5.85;;;1.63;;
75496;SDS011;64074;47.540;19.072;2024-02-21T14:26:29;8.00;;;1.90;;
75496;SDS011;64074;47.540;19.072;2024-02-21T14:29:38;6.18;;;1.77;;
75496;SDS011;64074;47.540;19.072;2024-02-21T14:32:49;7.35;;;1.60;;
75496;SDS011;64074;47.540;19.072;2024-02-21T14:35:55;7.67;;;1.60;;
75496;SDS011;64074;47.540;19.072;2024-02-21T14:39:06;5.82;;;1.50;;
75496;SDS011;64074;47.540;19.072;2024-02-21T14:42:18;5.40;;;1.90;;
75496;SDS011;64074;47.540;19.072;2024-02-21T14:45:28;4.20;;;1.48;;
75496;SDS011;64074;47.540;19.072;2024-02-21T14:48:35;7.85;;;2.15;;
75496;SDS011;64074;47.540;19.072;2024-02-21T14:51:39;5.87;;;1.33;;
75496;SDS011;64074;47.540;19.072;2024-02-21T14:54:49;5.57;;;1.45;;
75496;SDS011;64074;47.540;19.072;2024-02-21T14:57:59;6.93;;;1.50;;
75496;SDS011;64074;47.540;19.072;2024-02-21T15:01:09;8.30;;;1.60;;
75496;SDS011;64074;47.540;19.072;2024-02-21T15:04:24;9.55;;;1.60;;
75496;SDS011;64074;47.540;19.072;2024-02-21T15:07:52;6.63;;;1.90;;
75496;SDS011;64074;47.540;19.072;2024-02-21T15:11:08;8.68;;;2.00;;
75496;SDS011;64074;47.540;19.072;2024-02-21T15:14:12;6.40;;;1.45;;
75496;SDS011;64074;47.540;19.072;2024-02-21T15:17:22;7.65;;;1.70;;
75496;SDS011;64074;47.540;19.072;2024-02-21T15:20:30;5.38;;;1.30;;
75496;SDS011;64074;47.540;19.072;2024-02-21T15:23:35;7.53;;;2.10;;
75496;SDS011;64074;47.540;19.072;2024-02-21T15:26:39;5.88;;;1.40;;
75496;SDS011;64074;47.540;19.072;2024-02-21T15:29:48;4.65;;;1.48;;
75496;SDS011;64074;47.540;19.072;2024-02-21T15:33:10;6.18;;;1.58;;
75496;SDS011;64074;47.540;19.072;2024-02-21T15:36:31;5.45;;;1.48;;
75496;SDS011;64074;47.540;19.072;2024-02-21T15:39:52;5.07;;;1.40;;
75496;SDS011;64074;47.540;19.072;2024-02-21T15:43:18;4.63;;;1.50;;
75496;SDS011;64074;47.540;19.072;2024-02-21T15:46:41;4.13;;;1.70;;
75496;SDS011;64074;47.540;19.072;2024-02-21T15:49:59;9.15;;;2.38;;
75496;SDS011;64074;47.540;19.072;2024-02-21T15:53:23;4.63;;;1.40;;
75496;SDS011;64074;47.540;19.072;2024-02-21T15:56:39;4.97;;;1.53;;
75496;SDS011;64074;47.540;19.072;2024-02-21T15:59:52;4.35;;;1.50;;
75496;SDS011;64074;47.540;19.072;2024-02-21T16:03:30;7.75;;;1.50;;
75496;SDS011;64074;47.540;19.072;2024-02-21T16:06:53;8.93;;;1.67;;
75496;SDS011;64074;47.540;19.072;2024-02-21T16:10:15;6.72;;;1.40;;
75496;SDS011;64074;47.540;19.072;2024-02-21T16:13:33;7.13;;;1.37;;
75496;SDS011;64074;47.540;19.072;2024-02-21T16:17:01;8.30;;;1.48;;
75496;SDS011;64074;47.540;19.072;2024-02-21T16:20:23;3.90;;;1.60;;
75496;SDS011;64074;47.540;19.072;2024-02-21T16:23:43;7.90;;;1.48;;
75496;SDS011;64074;47.540;19.072;2024-02-21T16:27:02;6.38;;;1.63;;
75496;SDS011;64074;47.540;19.072;2024-02-21T16:30:28;4.33;;;1.30;;
75496;SDS011;64074;47.540;19.072;2024-02-21T16:33:46;6.07;;;1.73;;
75496;SDS011;64074;47.540;19.072;2024-02-21T16:37:03;4.43;;;1.60;;
75496;SDS011;64074;47.540;19.072;2024-02-21T16:40:30;4.82;;;1.27;;
75496;SDS011;64074;47.540;19.072;2024-02-21T16:43:50;3.38;;;1.60;;
75496;SDS011;64074;47.540;19.072;2024-02-21T16:47:01;8.20;;;2.03;;
75496;SDS011;64074;47.540;19.072;2024-02-21T16:50:07;7.63;;;2.10;;
75496;SDS011;64074;47.540;19.072;2024-02-21T16:53:20;8.13;;;2.05;;
75496;SDS011;64074;47.540;19.072;2024-02-21T16:56:23;10.05;;;2.42;;
75496;SDS011;64074;47.540;19.072;2024-02-21T16:59:28;9.23;;;2.17;;
75496;SDS011;64074;47.540;19.072;2024-02-21T17:02:42;7.73;;;2.43;;
75496;SDS011;64074;47.540;19.072;2024-02-21T17:06:02;8.32;;;2.92;;
75496;SDS011;64074;47.540;19.072;2024-02-21T17:09:22;10.80;;;2.80;;
75496;SDS011;64074;47.540;19.072;2024-02-21T17:12:29;8.38;;;2.50;;
75496;SDS011;64074;47.540;19.072;2024-02-21T17:15:42;9.13;;;2.70;;
75496;SDS011;64074;47.540;19.072;2024-02-21T17:19:00;8.07;;;2.70;;
75496;SDS011;64074;47.540;19.072;2024-02-21T17:22:04;10.60;;;3.20;;
75496;SDS011;64074;47.540;19.072;2024-02-21T17:25:15;6.50;;;2.78;;
75496;SDS011;64074;47.540;19.072;2024-02-21T17:28:20;7.55;;;2.97;;
75496;SDS011;64074;47.540;19.072;2024-02-21T17:31:28;8.65;;;3.22;;
75496;SDS011;64074;47.540;19.072;2024-02-21T17:34:38;5.27;;;2.40;;
75496;SDS011;64074;47.540;19.072;2024-02-21T17:37:50;13.15;;;5.47;;
75496;SDS011;64074;47.540;19.072;2024-02-21T17:41:07;8.90;;;2.58;;
75496;SDS011;64074;47.540;19.072;2024-02-21T17:44:21;7.93;;;3.30;;
75496;SDS011;64074;47.540;19.072;2024-02-21T17:47:33;7.85;;;3.03;;
75496;SDS011;64074;47.540;19.072;2024-02-21T17:50:40;8.20;;;2.70;;
75496;SDS011;64074;47.540;19.072;2024-02-21T17:53:50;7.60;;;2.60;;
75496;SDS011;64074;47.540;19.072;2024-02-21T17:57:26;10.00;;;2.85;;
75496;SDS011;64074;47.540;19.072;2024-02-21T18:00:38;6.63;;;2.60;;
75496;SDS011;64074;47.540;19.072;2024-02-21T18:03:55;8.88;;;2.90;;
75496;SDS011;64074;47.540;19.072;2024-02-21T18:07:15;18.13;;;7.30;;
75496;SDS011;64074;47.540;19.072;2024-02-21T18:10:36;11.13;;;3.95;;
75496;SDS011;64074;47.540;19.072;2024-02-21T18:13:50;8.95;;;3.08;;
75496;SDS011;64074;47.540;19.072;2024-02-21T18:16:55;14.68;;;3.80;;
75496;SDS011;64074;47.540;19.072;2024-02-21T18:20:09;8.15;;;3.10;;
75496;SDS011;64074;47.540;19.072;2024-02-21T18:23:20;6.53;;;2.80;;
75496;SDS011;64074;47.540;19.072;2024-02-21T18:26:40;13.57;;;3.45;;
75496;SDS011;64074;47.540;19.072;2024-02-21T18:30:02;10.40;;;3.00;;
75496;SDS011;64074;47.540;19.072;2024-02-21T18:33:17;9.80;;;3.30;;
75496;SDS011;64074;47.540;19.072;2024-02-21T18:36:45;6.18;;;2.92;;
75496;SDS011;64074;47.540;19.072;2024-02-21T18:40:03;6.50;;;3.10;;
75496;SDS011;64074;47.540;19.072;2024-02-21T18:43:27;10.90;;;3.33;;
75496;SDS011;64074;47.540;19.072;2024-02-21T18:46:47;14.75;;;3.67;;
75496;SDS011;64074;47.540;19.072;2024-02-21T18:50:12;7.97;;;3.38;;
75496;SDS011;64074;47.540;19.072;2024-02-21T18:53:35;8.50;;;4.15;;
75496;SDS011;64074;47.540;19.072;2024-02-21T18:56:56;10.47;;;3.93;;
75496;SDS011;64074;47.540;19.072;2024-02-21T19:00:20;10.30;;;4.18;;
75496;SDS011;64074;47.540;19.072;2024-02-21T19:03:38;12.55;;;5.18;;
75496;SDS011;64074;47.540;19.072;2024-02-21T19:06:51;9.50;;;5.07;;
75496;SDS011;64074;47.540;19.072;2024-02-21T19:10:24;12.57;;;5.53;;
75496;SDS011;64074;47.540;19.072;2024-02-21T19:13:46;13.67;;;6.00;;
75496;SDS011;64074;47.540;19.072;2024-02-21T19:17:02;15.77;;;6.10;;
75496;SDS011;64074;47.540;19.072;2024-02-21T19:20:27;14.32;;;7.00;;
75496;SDS011;64074;47.540;19.072;2024-02-21T19:23:40;15.40;;;6.38;;
75496;SDS011;64074;47.540;19.072;2024-02-21T19:27:01;14.50;;;6.72;;